Time;durP1;ratioP1;P1;durP2;ratioP2;P2;SDS_P1;SDS_P2;PMS_P1;PMS_P2;Temp;Humidity;BMP_temperature;BMP_pressure;BME280_temperature;BME280_humidity;BME280_pressure;Samples;Min_cycle;Max_cycle;Signal;HPM_P1;HPM_P2
2022/11/10 00:00:52;;;;;;;47.88;32.00;;;;;;;10.33;66.09;95279.91;4143089;28;20057;-78
2022/11/10 00:02:54;;;;;;;44.42;32.03;;;;;;;10.33;66.19;95286.94;4144029;28;20077;-78
2022/11/10 00:04:56;;;;;;;47.58;32.78;;;;;;;10.30;66.11;95289.84;4144805;28;20077;-78
2022/11/10 00:06:57;;;;;;;56.38;36.47;;;;;;;10.23;65.90;95289.56;4130885;28;20063;-77
2022/11/10 00:08:59;;;;;;;48.60;35.83;;;;;;;10.16;65.88;95284.06;4144394;28;20386;-80
2022/11/10 00:11:05;;;;;;;50.55;35.67;;;;;;;10.14;65.89;95290.41;4142122;28;20057;-78
2022/11/10 00:13:07;;;;;;;49.38;35.50;;;;;;;10.10;66.39;95296.91;4144237;28;20050;-77
2022/11/10 00:17:30;;;;;;;60.45;37.30;;;;;;;10.11;66.33;95291.53;4144151;28;20049;-79
2022/11/10 00:19:33;;;;;;;52.22;35.72;;;;;;;10.14;66.00;95295.66;4142566;28;20108;-78
2022/11/10 00:21:36;;;;;;;42.95;30.05;;;;;;;10.17;66.62;95279.66;4143049;28;20614;-78
2022/11/10 00:23:38;;;;;;;47.70;31.65;;;;;;;10.14;66.14;95287.78;4142465;28;20049;-79
2022/11/10 00:25:39;;;;;;;48.10;34.83;;;;;;;10.12;66.77;95287.09;4144715;28;20149;-75
2022/11/10 00:27:41;;;;;;;51.15;35.30;;;;;;;10.10;66.57;95279.38;4141090;28;20112;-77
2022/11/10 00:29:42;;;;;;;45.38;34.03;;;;;;;10.13;66.39;95281.75;4143800;28;20050;-77
2022/11/10 00:31:44;;;;;;;38.83;29.73;;;;;;;10.14;65.75;95286.00;4142191;28;20085;-75
2022/11/10 00:33:46;;;;;;;45.97;30.17;;;;;;;10.12;65.90;95287.09;4143126;28;20696;-77
2022/11/10 00:35:48;;;;;;;45.20;30.85;;;;;;;10.09;65.76;95285.59;4143833;28;20081;-77
2022/11/10 00:37:50;;;;;;;46.40;31.83;;;;;;;10.08;66.10;95281.31;4126715;28;20500;-77
2022/11/10 00:39:52;;;;;;;43.97;28.55;;;;;;;10.05;65.72;95271.97;4144148;28;20045;-75
2022/11/10 00:41:55;;;;;;;40.20;29.17;;;;;;;10.09;65.86;95271.66;4142523;28;20053;-76
2022/11/10 00:43:56;;;;;;;42.22;28.23;;;;;;;10.09;66.15;95271.66;4140529;28;20152;-78
2022/11/10 00:45:58;;;;;;;45.10;29.33;;;;;;;10.08;65.85;95273.47;4145509;28;20081;-77
2022/11/10 00:48:00;;;;;;;39.92;29.67;;;;;;;10.06;66.31;95272.78;4128552;28;20093;-77
2022/11/10 00:50:02;;;;;;;38.25;27.55;;;;;;;9.97;65.65;95268.41;4147582;28;20086;-78
2022/11/10 00:52:03;;;;;;;40.88;28.80;;;;;;;9.89;66.29;95265.66;4146936;28;20235;-76
2022/11/10 00:54:05;;;;;;;38.65;29.30;;;;;;;9.89;66.61;95263.03;4139792;28;20503;-77
2022/11/10 00:56:07;;;;;;;41.15;29.30;;;;;;;9.89;66.27;95263.88;4146998;28;20454;-78
2022/11/10 00:58:08;;;;;;;41.35;27.65;;;;;;;9.86;66.24;95255.50;4148003;28;20050;-78
2022/11/10 01:00:10;;;;;;;40.17;28.38;;;;;;;9.86;66.92;95261.53;4149050;28;20535;-76
2022/11/10 01:02:12;;;;;;;43.15;29.52;;;;;;;9.90;66.19;95262.09;4145926;28;20420;-74
2022/11/10 01:04:14;;;;;;;41.15;29.88;;;;;;;9.88;66.42;95259.59;4144181;28;20136;-73
2022/11/10 01:06:16;;;;;;;43.35;28.05;;;;;;;9.86;66.22;95256.31;4147076;28;20530;-74
2022/11/10 01:08:18;;;;;;;43.72;29.92;;;;;;;9.88;66.01;95254.38;4146364;28;20088;-75
2022/11/10 01:10:20;;;;;;;38.30;28.15;;;;;;;9.86;66.83;95255.50;4145623;28;20046;-74
2022/11/10 01:12:22;;;;;;;44.65;29.80;;;;;;;9.87;66.42;95265.78;4145958;28;20084;-75
2022/11/10 01:14:23;;;;;;;44.13;30.00;;;;;;;9.85;66.35;95254.63;4146679;28;20081;-76
2022/11/10 01:16:28;;;;;;;42.13;29.52;;;;;;;9.82;66.61;95254.94;4145775;28;20130;-73
2022/11/10 01:18:29;;;;;;;42.28;28.95;;;;;;;9.83;66.27;95259.22;4145581;28;20181;-74
2022/11/10 01:20:35;;;;;;;42.10;27.90;;;;;;;9.82;66.09;95255.75;4146835;28;20104;-74
2022/11/10 01:22:36;;;;;;;39.15;26.92;;;;;;;9.84;66.20;95256.44;4146614;28;20092;-73
2022/11/10 01:24:38;;;;;;;38.90;28.73;;;;;;;9.83;66.70;95259.22;4145165;28;20496;-75
2022/11/10 01:26:40;;;;;;;40.33;28.27;;;;;;;9.81;66.20;95256.72;4146718;28;20136;-75
2022/11/10 01:28:41;;;;;;;43.70;29.60;;;;;;;9.80;66.14;95254.25;4147055;28;20144;-75
2022/11/10 01:30:43;;;;;;;43.00;29.77;;;;;;;9.77;66.04;95251.94;4145811;28;20050;-74
2022/11/10 01:32:45;;;;;;;44.40;29.50;;;;;;;9.75;65.90;95254.66;4145710;28;20531;-74
2022/11/10 01:34:46;;;;;;;43.00;29.60;;;;;;;9.77;66.40;95249.31;4146662;28;20446;-75
2022/11/10 01:36:48;;;;;;;38.90;28.77;;;;;;;9.75;66.61;95246.81;4145079;28;20212;-73
2022/11/10 01:38:50;;;;;;;41.40;30.63;;;;;;;9.75;66.50;95249.44;4146156;28;20085;-78
2022/11/10 01:40:52;;;;;;;38.53;29.40;;;;;;;9.71;66.36;95252.47;4128895;28;20081;-78
2022/11/10 01:42:55;;;;;;;43.03;29.38;;;;;;;9.70;66.17;95256.03;4128899;28;20070;-78
2022/11/10 01:45:36;;;;;;;;;;;;;;;9.69;66.10;95252.63;4139592;28;20073;-78
2022/11/10 01:47:37;;;;;;;38.97;28.88;;;;;;;9.64;66.30;95252.22;4079282;29;20021;-77
2022/11/10 01:49:39;;;;;;;45.40;30.05;;;;;;;9.61;66.46;95255.94;4079875;29;20137;-77
2022/11/10 01:52:03;;;;;;;46.67;30.02;;;;;;;9.56;66.68;95246.84;4080136;29;20082;-78
2022/11/10 01:54:11;;;;;;;39.28;27.60;;;;;;;9.52;66.66;95251.53;4063959;29;20132;-77
2022/11/10 01:56:13;;;;;;;40.65;28.23;;;;;;;9.49;67.17;95254.44;4070379;29;20139;-76
2022/11/10 01:58:17;;;;;;;40.40;28.95;;;;;;;9.44;66.68;95248.78;4061090;29;20076;-77
2022/11/10 02:00:19;;;;;;;43.60;29.77;;;;;;;9.42;67.23;95241.09;4051308;29;20139;-75
2022/11/10 02:02:27;;;;;;;43.42;28.67;;;;;;;9.45;67.30;95247.00;4072765;29;20158;-75
2022/11/10 02:04:29;;;;;;;43.80;30.10;;;;;;;9.45;67.05;95249.63;4064315;29;20555;-76
2022/11/10 02:06:36;;;;;;;42.92;29.95;;;;;;;9.47;66.82;95245.09;4064343;29;20083;-78
2022/11/10 02:08:38;;;;;;;45.92;30.60;;;;;;;9.47;67.09;95252.94;4063847;29;20080;-77
2022/11/10 02:10:40;;;;;;;42.95;29.95;;;;;;;9.45;67.07;95252.25;4062678;29;20130;-78
2022/11/10 02:12:42;;;;;;;42.63;30.45;;;;;;;9.47;66.89;95252.94;4079276;29;20058;-77
2022/11/10 02:14:44;;;;;;;39.85;28.60;;;;;;;9.47;66.97;95251.13;4079780;29;20090;-77
2022/11/10 02:16:46;;;;;;;39.83;29.10;;;;;;;9.47;66.91;95253.75;4078501;29;20087;-76
2022/11/10 02:18:48;;;;;;;41.75;29.80;;;;;;;9.49;66.99;95251.00;4094377;28;20485;-75
2022/11/10 02:20:50;;;;;;;40.30;29.48;;;;;;;9.46;66.76;95246.03;4143627;28;20064;-78
2022/11/10 02:22:51;;;;;;;38.05;27.63;;;;;;;9.13;66.68;95261.97;4145819;28;20137;-79
2022/11/10 02:24:53;;;;;;;41.13;27.95;;;;;;;8.77;68.63;95260.81;4144495;28;20129;-77
2022/11/10 02:26:55;;;;;;;40.85;29.90;;;;;;;8.55;69.10;95262.69;4145428;28;20077;-75
2022/11/10 02:28:57;;;;;;;39.75;28.02;;;;;;;8.42;69.56;95267.31;4146888;28;20663;-73
2022/11/10 02:30:59;;;;;;;40.53;27.50;;;;;;;8.36;70.03;95273.03;4145414;28;20140;-75
2022/11/10 02:33:02;;;;;;;45.45;28.20;;;;;;;8.39;70.56;95265.78;4138472;28;20045;-73
2022/11/10 02:35:04;;;;;;;39.13;28.15;;;;;;;8.48;69.98;95261.56;4142960;28;20124;-73
2022/11/10 02:37:06;;;;;;;38.92;27.33;;;;;;;8.60;69.49;95265.75;4145837;28;20085;-74
2022/11/10 02:39:07;;;;;;;37.78;26.70;;;;;;;8.69;68.91;95265.88;4145153;28;20142;-74
2022/11/10 02:41:09;;;;;;;41.22;27.60;;;;;;;8.78;69.02;95270.34;4145305;28;20049;-75
2022/11/10 02:43:13;;;;;;;37.08;26.70;;;;;;;8.89;67.88;95267.59;4145345;28;20144;-74
2022/11/10 02:45:14;;;;;;;34.17;26.15;;;;;;;8.94;68.12;95265.38;4144818;28;20077;-75
2022/11/10 02:47:16;;;;;;;36.83;26.05;;;;;;;8.99;67.55;95268.44;4144709;28;20090;-75
2022/11/10 02:49:27;;;;;;;34.35;25.00;;;;;;;9.01;67.21;95265.69;4128976;28;20134;-74
2022/11/10 02:51:29;;;;;;;35.13;26.17;;;;;;;8.99;67.56;95272.81;4145607;28;20045;-74
2022/11/10 02:53:30;;;;;;;38.78;26.13;;;;;;;9.07;67.23;95272.16;4142784;28;20511;-74
2022/11/10 02:55:32;;;;;;;36.03;25.10;;;;;;;9.09;67.18;95272.84;4138084;28;20058;-74
2022/11/10 02:57:34;;;;;;;34.53;24.90;;;;;;;9.08;66.92;95271.19;4141207;28;20058;-73
2022/11/10 02:59:36;;;;;;;35.80;26.35;;;;;;;9.14;67.00;95266.25;4145411;28;20060;-74
2022/11/10 03:01:37;;;;;;;38.45;26.20;;;;;;;9.11;67.09;95269.13;4142758;28;20057;-74
2022/11/10 03:03:39;;;;;;;39.70;26.92;;;;;;;9.15;66.98;95280.16;4143729;28;20054;-74
2022/11/10 03:05:41;;;;;;;36.88;27.10;;;;;;;9.15;67.12;95275.75;4144264;28;20093;-74
2022/11/10 03:07:43;;;;;;;37.13;25.58;;;;;;;9.10;67.07;95274.50;4144528;28;20046;-75
2022/11/10 03:09:44;;;;;;;37.78;26.35;;;;;;;9.08;67.28;95276.41;4144862;28;20049;-74
2022/11/10 03:11:46;;;;;;;38.78;26.27;;;;;;;9.10;67.06;95280.56;4145179;28;20068;-73
2022/11/10 03:13:47;;;;;;;40.30;26.52;;;;;;;9.15;67.70;95277.53;4145707;28;20082;-77
2022/11/10 03:16:02;;;;;;;38.92;27.02;;;;;;;9.16;67.24;95276.56;4144801;28;20066;-76
2022/11/10 03:18:04;;;;;;;39.60;26.45;;;;;;;9.17;67.07;95276.44;4143840;28;20117;-76
2022/11/10 03:20:07;;;;;;;35.85;26.15;;;;;;;9.17;66.87;95280.84;4138694;28;20276;-76
2022/11/10 03:22:08;;;;;;;38.17;26.70;;;;;;;9.18;67.60;95278.09;4145588;28;20049;-77
2022/11/10 03:24:10;;;;;;;40.22;26.80;;;;;;;9.16;66.72;95281.78;4145085;28;20065;-76
2022/11/10 03:26:13;;;;;;;38.30;27.45;;;;;;;9.14;67.59;95283.72;4144943;28;20049;-78
2022/11/10 03:28:15;;;;;;;39.90;26.45;;;;;;;9.11;67.04;95284.81;4145857;28;20448;-75
2022/11/10 03:30:16;;;;;;;42.35;28.23;;;;;;;9.09;67.06;95278.06;4147037;28;20788;-75
2022/11/10 03:32:18;;;;;;;46.35;28.08;;;;;;;9.12;66.98;95283.03;4145489;28;20054;-77
2022/11/10 03:34:20;;;;;;;38.50;26.63;;;;;;;9.14;66.77;95281.94;4146166;28;20057;-77
2022/11/10 03:36:21;;;;;;;39.30;27.17;;;;;;;9.14;67.13;95281.94;4145629;28;20526;-76
2022/11/10 03:38:23;;;;;;;37.10;27.52;;;;;;;9.17;67.11;95280.84;4145750;28;20116;-78
2022/11/10 03:40:25;;;;;;;37.33;26.27;;;;;;;9.14;66.98;95286.31;4143521;28;20054;-75
2022/11/10 03:42:26;;;;;;;40.08;26.70;;;;;;;9.11;67.00;95282.19;4144774;28;20176;-76
2022/11/10 03:44:28;;;;;;;35.83;27.55;;;;;;;9.12;67.12;95280.41;4144830;28;20393;-76
2022/11/10 03:46:29;;;;;;;41.63;27.65;;;;;;;9.13;67.02;95284.69;4141942;28;20138;-76
2022/11/10 03:48:31;;;;;;;37.92;24.77;;;;;;;9.11;67.14;95289.22;4143550;28;20052;-76
2022/11/10 03:50:33;;;;;;;41.35;28.42;;;;;;;9.08;67.48;95281.63;4142982;28;20053;-74
2022/11/10 03:52:37;;;;;;;36.40;25.88;;;;;;;9.04;67.46;95277.66;4143546;28;20124;-76
2022/11/10 03:54:39;;;;;;;36.30;26.25;;;;;;;9.07;68.05;95295.69;4142773;28;20543;-75
2022/11/10 03:56:41;;;;;;;38.05;26.40;;;;;;;9.05;67.07;95290.59;4144361;28;20571;-75
2022/11/10 03:58:42;;;;;;;31.85;24.20;;;;;;;9.07;66.84;95293.88;4142792;28;20077;-74
2022/11/10 04:00:44;;;;;;;37.08;24.95;;;;;;;9.06;66.19;95291.44;4144522;28;20074;-75
2022/11/10 04:02:46;;;;;;;34.50;25.42;;;;;;;9.06;66.85;95294.03;4144799;28;20050;-74
2022/11/10 04:09:33;;;;;;;34.60;26.60;;;;;;;8.95;66.44;95293.19;4141701;28;20066;-74
2022/11/10 04:16:15;;;;;;;34.55;25.73;;;;;;;8.77;67.58;95302.63;4142490;28;20164;-74
2022/11/10 04:18:19;;;;;;;39.05;25.67;;;;;;;8.76;67.42;95298.38;4142430;28;20235;-74
2022/11/10 04:20:21;;;;;;;39.08;24.98;;;;;;;8.78;67.75;95306.91;4143148;28;20049;-73
2022/11/10 04:24:43;;;;;;;34.00;25.58;;;;;;;8.80;67.17;95299.75;4143584;28;20117;-75
2022/11/10 04:26:47;;;;;;;36.15;24.52;;;;;;;8.87;67.09;95302.66;4144436;28;20050;-73
2022/11/10 04:28:51;;;;;;;33.05;24.92;;;;;;;8.88;66.39;95302.50;4144819;28;20420;-74
2022/11/10 04:30:52;;;;;;;36.20;25.35;;;;;;;8.92;66.81;95309.13;4142305;28;20492;-76
2022/11/10 04:32:54;;;;;;;34.00;24.17;;;;;;;8.96;67.37;95304.47;4142001;28;20459;-78
2022/11/10 04:34:56;;;;;;;33.25;23.48;;;;;;;8.90;66.12;95305.00;4142837;28;20120;-76
2022/11/10 04:36:57;;;;;;;34.63;23.50;;;;;;;8.91;66.76;95307.47;4143024;28;20050;-74
2022/11/10 04:38:59;;;;;;;35.22;25.77;;;;;;;8.89;66.78;95308.59;4144443;28;20071;-76
2022/11/10 04:41:01;;;;;;;36.65;24.08;;;;;;;8.89;66.99;95301.56;4142450;28;20092;-76
2022/11/10 04:43:03;;;;;;;45.42;25.75;;;;;;;8.88;66.79;95302.50;4144206;28;20464;-74
2022/11/10 04:45:05;;;;;;;37.17;25.90;;;;;;;8.89;66.80;95303.34;4141880;28;20073;-76
2022/11/10 04:47:07;;;;;;;36.40;24.50;;;;;;;8.85;66.69;95301.97;4143793;28;20100;-76
2022/11/10 04:49:12;;;;;;;38.28;25.02;;;;;;;8.85;66.92;95302.78;4144131;28;20046;-75
2022/11/10 04:51:17;;;;;;;38.95;27.65;;;;;;;8.90;67.05;95305.81;4142869;28;20121;-76
2022/11/10 04:53:19;;;;;;;37.65;27.42;;;;;;;8.88;66.54;95304.31;4142220;28;20053;-75
2022/11/10 04:55:21;;;;;;;38.72;25.63;;;;;;;8.88;66.25;95309.53;4142492;28;20467;-75
2022/11/10 04:57:23;;;;;;;34.25;25.27;;;;;;;8.80;67.40;95310.22;4142817;28;20085;-74
2022/11/10 04:59:24;;;;;;;36.42;25.52;;;;;;;8.80;67.39;95315.44;4143990;28;20141;-75
2022/11/10 05:01:26;;;;;;;37.25;25.77;;;;;;;8.77;67.27;95310.47;4141427;28;20093;-75
2022/11/10 05:03:28;;;;;;;34.80;24.70;;;;;;;8.75;67.01;95307.97;4142728;28;20062;-76
2022/11/10 05:05:30;;;;;;;37.92;25.08;;;;;;;8.74;67.21;95314.16;4142520;28;20487;-79
2022/11/10 05:07:32;;;;;;;37.80;25.80;;;;;;;8.72;67.11;95317.88;4144159;28;20610;-75
2022/11/10 05:09:34;;;;;;;37.97;26.38;;;;;;;8.73;67.16;95319.50;4143403;28;20519;-75
2022/11/10 05:11:35;;;;;;;37.92;26.88;;;;;;;8.63;66.95;95319.50;4143689;28;20053;-74
2022/11/10 05:13:38;;;;;;;40.65;27.52;;;;;;;8.60;67.60;95319.75;4143069;28;20109;-77
2022/11/10 05:15:41;;;;;;;35.90;25.58;;;;;;;8.57;67.02;95320.84;4143557;28;20046;-77
2022/11/10 05:17:42;;;;;;;39.93;25.77;;;;;;;8.46;66.75;95325.34;4143410;28;20079;-76
2022/11/10 05:19:46;;;;;;;39.08;24.45;;;;;;;8.24;67.26;95323.66;4126168;28;20137;-75
2022/11/10 05:21:48;;;;;;;33.25;25.10;;;;;;;8.00;68.63;95332.59;4137903;28;20467;-78
2022/11/10 05:23:49;;;;;;;33.38;22.75;;;;;;;7.89;68.08;95330.06;4143022;28;20058;-78
2022/11/10 05:25:51;;;;;;;37.47;23.23;;;;;;;7.77;69.04;95324.91;4143719;28;20050;-77
2022/11/10 05:27:53;;;;;;;38.53;23.67;;;;;;;7.87;69.04;95327.59;4143842;28;20121;-79
2022/11/10 05:29:55;;;;;;;38.67;24.33;;;;;;;7.94;68.71;95322.69;4144430;28;20046;-77
2022/11/10 05:31:57;;;;;;;34.78;25.15;;;;;;;8.03;68.12;95324.53;4146078;28;20127;-76
2022/11/10 05:33:58;;;;;;;38.20;24.35;;;;;;;8.12;67.99;95326.34;4147006;28;20134;-74
2022/11/10 05:36:00;;;;;;;36.35;24.20;;;;;;;8.16;68.00;95325.16;4147354;28;20042;-78
2022/11/10 05:38:03;;;;;;;35.63;25.05;;;;;;;8.26;67.71;95325.22;4131030;28;20057;-77
2022/11/10 05:40:05;;;;;;;41.78;26.77;;;;;;;8.33;67.57;95328.94;4147228;28;20142;-79
2022/11/10 05:42:06;;;;;;;38.20;26.15;;;;;;;8.45;68.12;95321.88;4146753;28;20200;-77
2022/11/10 05:44:08;;;;;;;43.50;26.15;;;;;;;8.49;66.97;95328.50;4139750;28;20133;-76
2022/11/10 05:46:10;;;;;;;38.88;27.52;;;;;;;8.59;67.21;95331.97;4143653;28;20142;-76
2022/11/10 05:48:11;;;;;;;44.00;28.15;;;;;;;8.67;67.45;95335.72;4144677;28;20053;-77
2022/11/10 05:50:14;;;;;;;37.03;27.35;;;;;;;8.69;67.31;95333.78;4147714;28;20108;-76
2022/11/10 05:52:16;;;;;;;40.92;26.38;;;;;;;8.67;67.23;95341.78;4145975;28;20077;-76
2022/11/10 05:54:17;;;;;;;44.15;26.60;;;;;;;8.74;67.52;95344.69;4146273;28;20160;-75
2022/11/10 05:56:19;;;;;;;44.35;27.10;;;;;;;8.80;67.83;95342.38;4146616;28;20085;-73
2022/11/10 05:58:21;;;;;;;40.58;26.88;;;;;;;8.87;66.89;95344.47;4145207;28;20129;-75
2022/11/10 06:00:28;;;;;;;54.85;34.13;;;;;;;8.96;66.98;95349.72;4145366;28;20133;-73
2022/11/10 06:02:30;;;;;;;56.55;34.05;;;;;;;9.00;66.40;95345.88;4144835;28;20077;-71
2022/11/10 06:04:32;;;;;;;57.08;32.75;;;;;;;9.04;66.50;95353.47;4143876;28;20121;-73
2022/11/10 06:06:33;;;;;;;50.47;32.17;;;;;;;9.10;66.73;95356.38;4146091;28;20084;-73
2022/11/10 06:08:35;;;;;;;37.90;29.27;;;;;;;9.15;66.23;95361.19;4128224;28;20051;-74
2022/11/10 06:10:37;;;;;;;39.90;29.75;;;;;;;9.18;66.03;95356.53;4138631;28;20049;-75
2022/11/10 06:12:39;;;;;;;42.17;28.77;;;;;;;9.24;65.92;95365.59;4144776;28;20085;-71
2022/11/10 06:14:40;;;;;;;42.10;27.23;;;;;;;9.29;66.40;95373.03;4144531;28;20077;-74
2022/11/10 06:16:42;;;;;;;38.90;27.33;;;;;;;9.33;65.84;95366.56;4145066;28;20080;-77
2022/11/10 06:18:44;;;;;;;44.88;28.42;;;;;;;9.38;66.12;95369.63;4146304;28;20436;-74
2022/11/10 06:20:46;;;;;;;42.45;27.52;;;;;;;9.45;66.26;95367.31;4146285;28;20140;-76
2022/11/10 06:23:05;;;;;;;40.70;27.02;;;;;;;9.59;65.53;95374.72;4145679;28;20049;-73
2022/11/10 06:25:08;;;;;;;40.10;29.02;;;;;;;9.62;65.61;95374.47;4138227;28;20057;-76
2022/11/10 06:27:09;;;;;;;43.30;27.92;;;;;;;9.72;65.70;95383.16;4145843;28;20703;-76
2022/11/10 06:29:11;;;;;;;41.00;27.70;;;;;;;9.69;65.89;95383.44;4145918;28;20499;-78
2022/11/10 06:31:13;;;;;;;40.97;26.92;;;;;;;9.76;65.73;95392.38;4143306;28;20129;-74
2022/11/10 06:33:14;;;;;;;43.65;29.60;;;;;;;9.74;65.20;95391.69;4145645;28;20077;-80
2022/11/10 06:35:16;;;;;;;49.42;29.98;;;;;;;9.74;65.63;95391.69;4144413;28;20537;-75
2022/11/10 06:37:18;;;;;;;46.67;29.23;;;;;;;9.76;65.13;95387.13;4144152;28;20073;-75
2022/11/10 06:39:20;;;;;;;53.63;29.55;;;;;;;9.83;65.11;95393.50;4142462;28;20047;-78
2022/11/10 06:41:21;;;;;;;45.35;29.30;;;;;;;9.95;65.81;95401.19;4143781;28;20116;-76
2022/11/10 06:43:26;;;;;;;42.50;28.33;;;;;;;10.02;65.06;95407.53;4138178;28;20170;-72
2022/11/10 06:45:27;;;;;;;45.75;29.23;;;;;;;10.10;64.89;95402.44;4134807;28;20122;-75
2022/11/10 06:47:30;;;;;;;40.80;28.17;;;;;;;10.16;65.60;95407.13;4145536;28;20058;-76
2022/11/10 06:49:33;;;;;;;48.57;29.07;;;;;;;10.27;64.89;95405.31;4147088;28;20042;-76
2022/11/10 06:51:34;;;;;;;44.90;28.55;;;;;;;10.35;64.81;95402.88;4129100;28;20706;-73
2022/11/10 06:53:36;;;;;;;46.53;28.20;;;;;;;10.40;64.60;95405.88;4141751;28;20054;-75
2022/11/10 06:55:38;;;;;;;43.58;28.63;;;;;;;10.46;64.31;95407.94;4145673;28;20584;-75
2022/11/10 06:57:40;;;;;;;46.72;29.33;;;;;;;10.49;64.19;95405.03;4145467;28;20046;-76
2022/11/10 06:59:41;;;;;;;45.30;31.35;;;;;;;10.55;64.06;95411.50;4147294;28;20137;-78
2022/11/10 07:01:43;;;;;;;50.33;31.75;;;;;;;10.52;64.09;95407.38;4145813;28;20057;-76
2022/11/10 07:03:45;;;;;;;47.47;32.03;;;;;;;10.45;64.18;95403.66;4116166;28;20065;-75
2022/11/10 07:06:07;;;;;;;49.22;30.95;;;;;;;10.37;65.28;95403.56;4138474;28;20073;-76
2022/11/10 07:08:15;;;;;;;50.00;31.70;;;;;;;10.44;65.28;95404.63;4145155;28;20096;-78
2022/11/10 07:10:17;;;;;;;47.67;30.52;;;;;;;10.47;65.38;95408.75;4137958;28;20484;-74
2022/11/10 07:12:18;;;;;;;51.65;31.48;;;;;;;10.57;65.45;95413.00;4147134;28;20077;-78
2022/11/10 07:14:20;;;;;;;45.55;30.90;;;;;;;10.65;65.01;95410.50;4143955;28;20077;-76
2022/11/10 07:16:22;;;;;;;45.05;31.20;;;;;;;10.70;64.96;95419.75;4142531;28;20069;-78
2022/11/10 07:18:25;;;;;;;47.20;30.35;;;;;;;10.69;64.82;95420.69;4127924;28;20054;-75
2022/11/10 07:20:27;;;;;;;52.72;31.98;;;;;;;10.64;64.49;95419.34;4145195;28;20081;-78
2022/11/10 07:22:29;;;;;;;43.83;29.73;;;;;;;10.46;65.42;95421.03;4145498;28;20058;-75
2022/11/10 07:24:31;;;;;;;46.58;31.45;;;;;;;10.20;65.74;95426.00;4143095;28;20566;-78
2022/11/10 07:26:33;;;;;;;46.95;32.22;;;;;;;9.92;66.89;95427.66;4145002;28;20081;-74
2022/11/10 07:28:35;;;;;;;49.22;32.83;;;;;;;9.98;69.18;95420.09;4145521;28;20054;-76
2022/11/10 07:30:40;;;;;;;48.78;32.25;;;;;;;10.16;68.27;95422.81;4144157;28;20057;-76
2022/11/10 07:32:41;;;;;;;47.75;33.92;;;;;;;10.33;67.20;95423.13;4126892;28;20073;-76
2022/11/10 07:34:43;;;;;;;51.75;34.22;;;;;;;10.59;66.85;95431.22;4144858;28;20046;-77
2022/11/10 07:36:45;;;;;;;48.80;32.92;;;;;;;10.71;65.25;95429.25;4144863;28;20089;-79
2022/11/10 07:38:46;;;;;;;47.30;33.42;;;;;;;10.73;65.26;95433.38;4144235;28;20085;-75
2022/11/10 07:40:52;;;;;;;47.08;32.05;;;;;;;10.72;65.37;95428.28;4145089;28;20054;-75
2022/11/10 07:42:54;;;;;;;52.13;33.28;;;;;;;10.64;65.36;95426.38;4127233;28;20046;-75
2022/11/10 07:44:55;;;;;;;51.65;33.13;;;;;;;10.37;66.08;95427.13;4144391;28;20080;-74
2022/11/10 07:46:57;;;;;;;48.97;34.35;;;;;;;10.47;66.43;95421.84;4145323;28;20050;-77
2022/11/10 07:48:59;;;;;;;48.10;31.80;;;;;;;10.66;66.06;95419.19;4144602;28;20086;-76
2022/11/10 07:51:00;;;;;;;51.88;34.33;;;;;;;10.87;65.59;95421.63;4144630;28;20125;-75
2022/11/10 07:53:07;;;;;;;49.67;34.08;;;;;;;11.09;64.75;95424.88;4142227;28;20050;-77
2022/11/10 07:55:09;;;;;;;52.50;35.10;;;;;;;11.10;64.44;95426.50;4144381;28;20104;-75
2022/11/10 07:57:10;;;;;;;52.10;35.15;;;;;;;11.10;64.18;95422.09;4144213;28;20513;-79
2022/11/10 07:59:12;;;;;;;47.35;34.70;;;;;;;10.92;64.08;95424.63;4143650;28;20137;-77
2022/11/10 08:01:14;;;;;;;52.38;35.20;;;;;;;10.86;64.84;95425.19;4143676;28;20068;-78
2022/11/10 08:03:18;;;;;;;49.53;30.45;;;;;;;10.65;65.75;95431.47;4144389;28;20132;-77
2022/11/10 08:05:20;;;;;;;47.00;32.15;;;;;;;10.73;65.58;95428.13;4144413;28;20446;-76
2022/11/10 08:07:21;;;;;;;48.15;31.75;;;;;;;10.32;66.73;95430.13;4126963;28;20428;-77
2022/11/10 08:09:23;;;;;;;42.30;31.02;;;;;;;10.15;68.27;95429.03;4144158;28;20108;-77
2022/11/10 08:11:25;;;;;;;44.78;30.42;;;;;;;10.49;67.68;95427.78;4143154;28;20094;-77
2022/11/10 08:13:26;;;;;;;44.05;31.00;;;;;;;10.81;67.12;95425.63;4144743;28;20117;-77
2022/11/10 08:15:29;;;;;;;44.85;31.42;;;;;;;11.09;65.93;95420.44;4144093;28;20060;-78
2022/11/10 08:17:30;;;;;;;44.67;31.00;;;;;;;11.30;65.32;95425.44;4126114;28;20050;-72
2022/11/10 08:19:32;;;;;;;46.10;31.67;;;;;;;11.53;64.59;95419.78;4142246;28;20070;-72
2022/11/10 08:21:34;;;;;;;49.60;33.28;;;;;;;11.74;63.77;95424.78;4143912;28;20434;-73
2022/11/10 08:23:35;;;;;;;45.83;31.17;;;;;;;11.91;63.36;95425.81;4143700;28;20092;-73
2022/11/10 08:25:37;;;;;;;53.75;34.90;;;;;;;12.02;62.88;95421.19;4143458;28;20491;-73
2022/11/10 08:27:39;;;;;;;56.83;36.67;;;;;;;11.92;63.38;95430.09;4143744;28;20523;-76
2022/11/10 08:29:41;;;;;;;59.10;39.78;;;;;;;11.66;64.74;95430.78;4144256;28;20053;-72
2022/11/10 08:31:43;;;;;;;59.22;37.35;;;;;;;11.41;65.73;95432.31;4143449;28;20090;-77
2022/11/10 08:33:44;;;;;;;56.47;38.33;;;;;;;11.61;65.49;95438.25;4144308;28;20184;-75
2022/11/10 08:35:48;;;;;;;64.32;40.65;;;;;;;11.77;65.86;95433.19;4143762;28;20088;-74
2022/11/10 08:37:50;;;;;;;57.38;36.10;;;;;;;11.92;65.12;95433.53;4142891;28;20401;-73
2022/11/10 08:39:52;;;;;;;50.72;35.60;;;;;;;11.82;65.48;95435.38;4142519;28;20136;-73
2022/11/10 08:41:54;;;;;;;55.95;34.90;;;;;;;11.78;66.08;95436.63;4143425;28;20258;-73
2022/11/10 08:43:56;;;;;;;58.03;36.58;;;;;;;11.84;66.13;95428.19;4136990;28;20097;-76
2022/11/10 08:45:57;;;;;;;43.70;29.95;;;;;;;11.98;65.75;95437.34;4143204;28;20105;-76
2022/11/10 08:48:10;;;;;;;43.35;27.55;;;;;;;12.09;65.24;95426.66;4138045;28;20058;-76
2022/11/10 08:50:11;;;;;;;48.17;31.58;;;;;;;11.96;65.99;95441.94;4147318;28;20054;-78
2022/11/10 08:52:13;;;;;;;59.42;36.63;;;;;;;11.45;66.76;95431.84;4142682;28;20069;-77
2022/11/10 08:54:14;;;;;;;53.75;38.03;;;;;;;11.35;68.29;95433.69;4144635;28;20129;-78
2022/11/10 08:56:16;;;;;;;56.83;36.42;;;;;;;11.57;67.31;95432.50;4143077;28;20054;-74
2022/11/10 08:58:20;;;;;;;54.15;35.63;;;;;;;11.51;66.92;95440.09;4143972;28;20085;-74
2022/11/10 09:00:22;;;;;;;58.45;37.30;;;;;;;11.34;67.48;95441.75;4142661;28;20086;-74
2022/11/10 09:02:23;;;;;;;46.58;32.97;;;;;;;11.40;67.64;95441.13;4141922;28;20054;-73
2022/11/10 09:04:25;;;;;;;44.15;30.63;;;;;;;11.12;68.26;95442.91;4142734;28;20113;-74
2022/11/10 09:06:27;;;;;;;46.03;30.05;;;;;;;11.13;68.04;95441.97;4141820;28;20042;-73
2022/11/10 09:08:32;;;;;;;48.33;31.38;;;;;;;11.35;68.17;95436.31;4144554;28;20053;-74
2022/11/10 09:10:37;;;;;;;43.90;32.10;;;;;;;11.30;67.89;95435.13;4145463;28;20400;-75
2022/11/10 09:12:40;;;;;;;47.28;31.40;;;;;;;11.36;67.81;95437.19;4146709;28;20100;-73
2022/11/10 09:14:42;;;;;;;48.03;33.22;;;;;;;11.62;67.09;95434.69;4145238;28;20434;-75
2022/11/10 09:16:43;;;;;;;51.90;34.90;;;;;;;11.83;65.99;95442.25;4145577;28;20069;-72
2022/11/10 09:18:45;;;;;;;55.28;36.40;;;;;;;11.90;65.73;95434.69;4146804;28;20404;-78
2022/11/10 09:20:47;;;;;;;55.92;37.88;;;;;;;12.04;65.42;95436.75;4146979;28;20189;-77
2022/11/10 09:22:49;;;;;;;62.33;39.28;;;;;;;12.23;64.33;95427.91;4144901;28;20112;-76
2022/11/10 09:24:50;;;;;;;63.42;40.97;;;;;;;12.46;64.51;95428.28;4146531;28;20531;-78
2022/11/10 09:26:52;;;;;;;56.42;39.13;;;;;;;12.76;63.63;95429.63;4146874;28;20046;-79
2022/11/10 09:28:54;;;;;;;58.60;37.90;;;;;;;12.54;62.80;95423.06;4146924;28;20116;-77
2022/11/10 09:30:55;;;;;;;56.10;38.20;;;;;;;12.49;63.75;95427.94;4146508;28;20050;-77
2022/11/10 09:32:58;;;;;;;61.47;39.30;;;;;;;12.72;63.73;95424.84;4146263;28;20084;-75
2022/11/10 09:35:00;;;;;;;49.78;33.58;;;;;;;12.99;62.24;95419.41;4145496;28;20674;-77
2022/11/10 09:37:02;;;;;;;66.97;43.28;;;;;;;13.06;61.74;95419.63;4145488;28;20069;-79
2022/11/10 09:39:05;;;;;;;65.03;39.58;;;;;;;12.50;63.16;95422.53;4146610;28;20453;-77
2022/11/10 09:41:10;;;;;;;58.92;40.28;;;;;;;12.74;62.85;95422.88;4146300;28;20492;-76